createdAt,value
2022-09-14T00:00:32.843Z,47.36
2022-09-14T00:03:28.976Z,47.42
2022-09-14T00:06:06.750Z,47.48
2022-09-14T00:08:39.048Z,47.43
2022-09-14T00:11:13.923Z,47.35
2022-09-14T00:13:48.694Z,47.43
2022-09-14T00:16:23.827Z,47.38
2022-09-14T00:18:59.571Z,47.44
2022-09-14T00:21:37.861Z,47.43
2022-09-14T00:24:11.183Z,47.43
2022-09-14T00:26:43.678Z,47.45
2022-09-14T00:29:17.161Z,47.37
2022-09-14T00:31:51.142Z,47.41
2022-09-14T00:34:24.878Z,47.29
2022-09-14T00:36:57.734Z,47.38
2022-09-14T00:39:29.710Z,47.31
2022-09-14T00:42:03.857Z,47.39
2022-09-14T00:45:18.202Z,47.33
2022-09-14T00:47:58.251Z,47.50
2022-09-14T00:50:31.761Z,47.56
2022-09-14T00:53:05.561Z,47.55
2022-09-14T00:55:38.021Z,47.55
2022-09-14T00:58:10.761Z,47.53
2022-09-14T01:00:45.257Z,47.59
2022-09-14T01:03:20.834Z,47.55
2022-09-14T01:06:06.404Z,47.49
2022-09-14T01:09:05.327Z,47.48
2022-09-14T01:11:51.801Z,47.46
2022-09-14T01:14:31.326Z,47.57
2022-09-14T01:17:11.885Z,47.61
2022-09-14T01:20:22.312Z,47.63
2022-09-14T01:23:06.511Z,47.78
2022-09-14T01:25:51.332Z,47.78
2022-09-14T01:28:30.692Z,47.85
2022-09-14T01:31:04.986Z,47.83
2022-09-14T01:33:41.525Z,47.79
2022-09-14T01:36:16.422Z,47.83
2022-09-14T01:38:50.439Z,47.90
2022-09-14T01:41:30.693Z,48.07
2022-09-14T01:44:04.710Z,47.89
2022-09-14T01:46:43.066Z,47.94
2022-09-14T01:49:20.044Z,47.83
2022-09-14T01:51:56.334Z,47.87
2022-09-14T01:54:34.755Z,47.93
2022-09-14T01:57:19.013Z,47.84
2022-09-14T01:59:56.191Z,47.88
2022-09-14T02:02:32.611Z,47.82
2022-09-14T02:05:11.983Z,47.78
2022-09-14T02:07:46.936Z,47.88
2022-09-14T02:10:20.238Z,47.95
2022-09-14T02:12:53.760Z,48.06
2022-09-14T02:15:31.293Z,48.16
2022-09-14T02:18:03.919Z,48.12
2022-09-14T02:20:40.087Z,48.19
2022-09-14T02:23:16.395Z,48.20
2022-09-14T02:25:50.484Z,48.11
2022-09-14T02:28:25.101Z,48.23
2022-09-14T02:31:11.513Z,48.29
2022-09-14T02:34:06.158Z,48.55
2022-09-14T02:36:50.214Z,48.64
2022-09-14T02:39:33.338Z,48.76
2022-09-14T02:42:16.845Z,48.83
2022-09-14T02:44:57.168Z,48.91
2022-09-14T02:47:36.033Z,48.90
2022-09-14T02:50:14.100Z,48.73
2022-09-14T02:52:52.894Z,48.94
2022-09-14T02:55:26.970Z,48.87
2022-09-14T02:58:08.667Z,49.05
2022-09-14T03:00:47.230Z,48.91
2022-09-14T03:03:22.980Z,49.06
2022-09-14T03:05:57.069Z,49.21
2022-09-14T03:08:30.347Z,49.32
2022-09-14T03:11:10.118Z,49.46
2022-09-14T03:13:43.308Z,49.40
2022-09-14T03:16:17.489Z,49.43
2022-09-14T03:18:51.561Z,49.41
2022-09-14T03:21:24.346Z,49.08
2022-09-14T03:23:57.986Z,48.99
2022-09-14T03:26:32.029Z,49.40
2022-09-14T03:29:04.818Z,49.52
2022-09-14T03:31:37.642Z,49.45
2022-09-14T03:34:11.972Z,49.37
2022-09-14T03:36:43.931Z,49.58
2022-09-14T03:39:16.660Z,49.55
2022-09-14T03:41:50.507Z,49.89
2022-09-14T03:44:22.903Z,49.62
2022-09-14T03:46:55.209Z,49.58
2022-09-14T03:49:29.188Z,49.58
2022-09-14T03:52:03.938Z,49.75
2022-09-14T03:54:39.177Z,49.91
2022-09-14T03:57:11.810Z,49.92
2022-09-14T03:59:45.478Z,50.14
2022-09-14T04:02:17.901Z,50.20
2022-09-14T04:04:50.073Z,50.26
2022-09-14T04:07:22.184Z,50.30
2022-09-14T04:09:54.120Z,50.36
2022-09-14T04:12:26.667Z,50.30
2022-09-14T04:14:58.718Z,50.63
2022-09-14T04:17:30.947Z,50.52
2022-09-14T04:20:03.107Z,50.61
2022-09-14T04:22:36.708Z,50.64
2022-09-14T04:25:09.985Z,50.65
2022-09-14T04:27:41.893Z,50.54
2022-09-14T04:30:15.702Z,50.93
2022-09-14T04:32:48.051Z,50.71
2022-09-14T04:35:20.576Z,50.94
2022-09-14T04:37:52.741Z,50.99
2022-09-14T04:40:25.040Z,51.11
2022-09-14T04:42:56.960Z,51.17
2022-09-14T04:45:29.130Z,51.29
2022-09-14T04:48:01.043Z,51.23
2022-09-14T04:50:34.702Z,51.15
2022-09-14T04:53:06.836Z,51.21
2022-09-14T04:55:39.258Z,51.27
2022-09-14T04:58:11.329Z,51.36
2022-09-14T05:00:43.442Z,51.45
2022-09-14T05:03:15.771Z,51.55
2022-09-14T05:05:48.444Z,51.48
2022-09-14T05:08:20.737Z,51.53
2022-09-14T05:10:55.670Z,51.46
2022-09-14T05:13:28.242Z,51.33
2022-09-14T05:16:07.728Z,51.67
2022-09-14T05:18:40.018Z,51.66
2022-09-14T05:21:13.708Z,51.64
2022-09-14T05:23:46.398Z,51.66
2022-09-14T05:26:18.314Z,51.63
2022-09-14T05:28:55.213Z,51.67
2022-09-14T05:31:29.320Z,51.68
2022-09-14T05:34:03.193Z,51.72
2022-09-14T05:36:36.846Z,51.68
2022-09-14T05:39:09.930Z,51.63
2022-09-14T05:41:41.866Z,51.58
2022-09-14T05:44:15.075Z,51.33
2022-09-14T05:46:47.234Z,51.06
2022-09-14T05:49:19.300Z,51.16
2022-09-14T05:51:51.755Z,51.03
2022-09-14T05:54:23.959Z,50.77
2022-09-14T05:56:56.020Z,50.53
2022-09-14T05:59:31.826Z,50.40
2022-09-14T06:02:04.153Z,50.34
2022-09-14T06:04:36.492Z,50.28
2022-09-14T06:07:18.435Z,50.25
2022-09-14T06:09:51.294Z,49.98
2022-09-14T06:12:23.467Z,49.93
2022-09-14T06:14:55.366Z,49.74
2022-09-14T06:17:27.598Z,49.49
2022-09-14T06:20:04.038Z,49.41
2022-09-14T06:22:37.040Z,49.06
2022-09-14T06:25:11.533Z,49.22
2022-09-14T06:27:43.535Z,49.18
2022-09-14T06:30:17.012Z,48.90
2022-09-14T06:32:49.172Z,48.69
2022-09-14T06:35:21.176Z,48.69
2022-09-14T06:37:53.255Z,48.38
2022-09-14T06:40:27.154Z,48.09
2022-09-14T06:43:03.051Z,48.00
2022-09-14T06:45:36.854Z,47.96
2022-09-14T06:48:08.971Z,48.09
2022-09-14T06:50:41.292Z,47.96
2022-09-14T06:53:13.438Z,47.69
2022-09-14T06:55:46.414Z,46.83
2022-09-14T06:58:21.712Z,46.81
2022-09-14T07:00:54.595Z,46.79
2022-09-14T07:03:28.097Z,46.81
2022-09-14T07:06:09.006Z,46.87
2022-09-14T07:08:42.949Z,47.08
2022-09-14T07:11:17.853Z,47.21
2022-09-14T07:13:50.710Z,47.18
2022-09-14T07:16:26.596Z,47.17
2022-09-14T07:19:05.988Z,47.16
2022-09-14T07:21:38.215Z,46.97
2022-09-14T07:24:14.877Z,46.94
2022-09-14T07:26:47.188Z,46.58
2022-09-14T07:29:23.158Z,46.69
2022-09-14T07:31:57.126Z,46.83
2022-09-14T07:34:31.300Z,46.96
2022-09-14T07:37:04.492Z,46.94
2022-09-14T07:39:36.775Z,46.71
2022-09-14T07:42:09.421Z,46.66
2022-09-14T07:44:42.068Z,45.99
2022-09-14T07:47:16.471Z,46.21
2022-09-14T07:49:49.200Z,46.31
2022-09-14T07:52:21.808Z,46.37
2022-09-14T07:54:56.285Z,46.28
2022-09-14T07:57:52.314Z,46.16
2022-09-14T08:00:22.043Z,46.31
2022-09-14T08:02:58.816Z,46.33
2022-09-14T08:05:31.701Z,46.57
2022-09-14T08:08:05.676Z,45.95
2022-09-14T08:10:39.720Z,46.04
2022-09-14T08:13:13.937Z,45.88
2022-09-14T08:15:46.453Z,45.89
2022-09-14T08:18:20.834Z,45.66
2022-09-14T08:20:54.793Z,45.42
2022-09-14T08:23:29.777Z,45.33
2022-09-14T08:26:07.498Z,45.27
2022-09-14T08:28:40.224Z,44.83
2022-09-14T08:31:15.862Z,44.88
2022-09-14T08:33:51.557Z,45.17
2022-09-14T08:36:24.942Z,44.77
2022-09-14T08:38:57.020Z,44.66
2022-09-14T08:41:32.329Z,44.90
2022-09-14T08:44:13.872Z,44.85
2022-09-14T08:46:51.692Z,44.54
2022-09-14T08:49:32.402Z,44.31
2022-09-14T08:52:06.825Z,44.14
2022-09-14T08:54:42.695Z,44.00
2022-09-14T08:57:19.950Z,43.59
2022-09-14T09:00:01.079Z,43.63
2022-09-14T09:02:52.150Z,43.65
2022-09-14T09:05:39.540Z,43.39
2022-09-14T09:08:19.008Z,43.15
2022-09-14T09:10:56.059Z,43.27
2022-09-14T09:13:30.624Z,43.28
2022-09-14T09:16:04.391Z,42.86
2022-09-14T09:18:42.856Z,42.76
2022-09-14T09:21:20.045Z,42.63
2022-09-14T09:23:54.782Z,42.45
2022-09-14T09:26:31.686Z,42.24
2022-09-14T09:29:08.884Z,42.09
2022-09-14T09:31:44.549Z,42.17
2022-09-14T09:34:18.434Z,42.06
2022-09-14T09:36:51.480Z,42.11
2022-09-14T09:39:26.032Z,41.99
2022-09-14T09:42:05.281Z,41.89
2022-09-14T09:45:01.810Z,41.92
2022-09-14T09:47:41.036Z,41.80
2022-09-14T09:50:22.412Z,42.01
2022-09-14T09:52:58.196Z,41.81
2022-09-14T09:55:37.704Z,41.10
2022-09-14T10:01:22.212Z,40.77
2022-09-14T10:04:11.316Z,40.97
2022-09-14T10:06:48.396Z,41.10
2022-09-14T10:09:24.522Z,41.43
2022-09-14T10:12:04.317Z,41.16
2022-09-14T10:14:40.751Z,40.66
2022-09-14T10:17:20.067Z,40.19
2022-09-14T10:19:53.056Z,40.32
2022-09-14T10:22:32.872Z,40.37
2022-09-14T10:25:27.914Z,40.48
2022-09-14T10:28:04.886Z,40.54
2022-09-14T10:30:40.896Z,40.70
2022-09-14T10:33:16.281Z,40.94
2022-09-14T10:35:58.588Z,41.14
2022-09-14T10:38:36.472Z,41.23
2022-09-14T10:41:21.258Z,41.38
2022-09-14T10:44:23.530Z,41.60
2022-09-14T10:47:10.373Z,41.63
2022-09-14T10:49:56.729Z,41.66
2022-09-14T10:52:38.412Z,41.69
2022-09-14T10:55:37.101Z,41.80
2022-09-14T10:58:24.789Z,42.09
2022-09-14T11:01:05.389Z,42.26
2022-09-14T11:03:47.386Z,42.61
2022-09-14T11:06:30.690Z,42.74
2022-09-14T11:09:10.839Z,42.84
2022-09-14T11:11:50.597Z,43.08
2022-09-14T11:14:39.578Z,43.16
2022-09-14T11:17:56.523Z,42.88
2022-09-14T11:20:34.713Z,43.11
2022-09-14T11:23:18.854Z,43.59
2022-09-14T11:25:56.162Z,43.79
2022-09-14T11:28:30.794Z,44.04
2022-09-14T11:31:13.715Z,43.94
2022-09-14T11:33:53.548Z,44.44
2022-09-14T11:36:30.690Z,44.71
2022-09-14T11:39:16.407Z,44.78
2022-09-14T11:41:53.700Z,44.85
2022-09-14T11:44:28.424Z,45.09
2022-09-14T11:47:05.304Z,45.02
2022-09-14T11:49:52.615Z,45.31
2022-09-14T11:52:27.245Z,45.85
2022-09-14T11:55:02.942Z,46.07
2022-09-14T11:57:36.171Z,46.52
2022-09-14T12:00:43.294Z,47.06
2022-09-14T12:03:20.414Z,47.31
2022-09-14T12:05:54.692Z,47.54
2022-09-14T12:08:41.823Z,47.26
2022-09-14T12:11:34.783Z,47.43
2022-09-14T12:14:30.483Z,48.08
2022-09-14T12:17:38.754Z,48.45
2022-09-14T12:20:38.445Z,48.96
2022-09-14T12:23:25.831Z,49.44
2022-09-14T12:26:01.995Z,49.73
2022-09-14T12:28:48.517Z,50.09
2022-09-14T12:31:40.676Z,50.64
2022-09-14T12:34:21.523Z,50.82
2022-09-14T12:37:27.004Z,51.38
2022-09-14T12:40:33.840Z,52.34
2022-09-14T12:43:46.982Z,52.69
2022-09-14T12:46:51.015Z,53.02
2022-09-14T12:49:46.875Z,53.60
2022-09-14T12:52:35.044Z,53.52
2022-09-14T12:55:31.125Z,55.84
2022-09-14T12:58:09.055Z,54.43
2022-09-14T13:00:56.564Z,53.68
2022-09-14T13:03:52.719Z,53.56
2022-09-14T13:06:26.604Z,53.64
2022-09-14T13:09:06.314Z,54.26
2022-09-14T13:11:44.082Z,54.48
2022-09-14T13:14:39.814Z,54.06
2022-09-14T13:17:15.920Z,53.84
2022-09-14T13:19:57.286Z,54.04
2022-09-14T13:22:33.582Z,54.76
2022-09-14T13:25:06.894Z,55.21
2022-09-14T13:27:40.615Z,55.48
2022-09-14T13:30:23.968Z,55.70
2022-09-14T13:32:59.935Z,55.74
2022-09-14T13:35:36.295Z,55.79
2022-09-14T13:38:17.947Z,55.66
2022-09-14T13:40:55.798Z,55.56
2022-09-14T13:43:29.024Z,55.44
2022-09-14T13:46:03.119Z,55.12
2022-09-14T13:48:40.389Z,54.58
2022-09-14T13:51:15.264Z,54.78
2022-09-14T13:53:50.691Z,54.83
2022-09-14T13:56:26.706Z,55.26
2022-09-14T13:59:25.297Z,55.33
2022-09-14T14:02:00.999Z,56.11
2022-09-14T14:04:36.384Z,55.53
2022-09-14T14:07:22.361Z,56.17
2022-09-14T14:09:57.084Z,56.24
2022-09-14T14:12:32.139Z,55.70
2022-09-14T14:15:06.899Z,55.25
2022-09-14T14:17:41.240Z,55.03
2022-09-14T14:20:45.391Z,54.86
2022-09-14T14:23:22.708Z,54.66
2022-09-14T14:25:56.279Z,54.33
2022-09-14T14:28:30.631Z,54.65
2022-09-14T14:31:08.541Z,53.80
2022-09-14T14:33:48.359Z,53.59
2022-09-14T14:36:23.387Z,53.43
2022-09-14T14:38:59.781Z,53.24
2022-09-14T14:41:33.135Z,53.37
2022-09-14T14:44:07.317Z,53.46
2022-09-14T14:46:40.745Z,53.49
2022-09-14T14:49:17.167Z,53.67
2022-09-14T14:51:51.668Z,53.78
2022-09-14T14:54:29.067Z,53.87
2022-09-14T14:57:04.213Z,53.88
2022-09-14T14:59:41.544Z,54.18
2022-09-14T15:02:15.402Z,54.21
2022-09-14T15:04:50.658Z,55.05
2022-09-14T15:07:23.349Z,55.35
2022-09-14T15:10:03.173Z,55.49
2022-09-14T15:12:37.155Z,55.81
2022-09-14T15:15:18.714Z,55.90
2022-09-14T15:17:52.014Z,55.90
2022-09-14T15:20:25.243Z,55.83
2022-09-14T15:23:00.365Z,55.86
2022-09-14T15:25:32.821Z,56.45
2022-09-14T15:28:06.978Z,56.05
2022-09-14T15:30:40.920Z,56.43
2022-09-14T15:33:15.414Z,56.71
2022-09-14T15:35:47.685Z,56.28
2022-09-14T15:38:20.050Z,56.67
2022-09-14T15:40:53.420Z,56.81
2022-09-14T15:43:25.554Z,56.80
2022-09-14T15:46:04.286Z,56.60
2022-09-14T15:48:38.368Z,57.09
2022-09-14T15:51:12.963Z,57.35
2022-09-14T15:53:47.373Z,56.73
2022-09-14T15:56:21.446Z,56.83
2022-09-14T15:58:53.602Z,57.00
2022-09-14T16:01:25.961Z,57.01
2022-09-14T16:04:05.753Z,57.28
2022-09-14T16:06:42.455Z,57.15
2022-09-14T16:09:17.610Z,57.07
2022-09-14T16:11:49.855Z,57.15
2022-09-14T16:14:28.171Z,57.25
2022-09-14T16:17:03.142Z,57.23
2022-09-14T16:19:35.903Z,57.45
2022-09-14T16:22:10.547Z,57.34
2022-09-14T16:24:46.520Z,57.47
2022-09-14T16:27:21.931Z,57.54
2022-09-14T16:29:56.111Z,57.55
2022-09-14T16:32:30.448Z,57.60
2022-09-14T16:35:08.107Z,57.75
2022-09-14T16:37:41.785Z,57.93
2022-09-14T16:40:16.430Z,57.91
2022-09-14T16:42:49.836Z,57.92
2022-09-14T16:45:23.190Z,58.46
2022-09-14T16:47:56.473Z,58.80
2022-09-14T16:50:30.084Z,58.78
2022-09-14T16:53:03.597Z,59.03
2022-09-14T16:55:38.132Z,58.91
2022-09-14T16:58:11.049Z,58.92
2022-09-14T17:00:44.430Z,58.85
2022-09-14T17:03:18.607Z,58.96
2022-09-14T17:05:52.072Z,58.99
2022-09-14T17:08:25.512Z,59.10
2022-09-14T17:10:59.023Z,59.34
2022-09-14T17:13:34.063Z,59.36
2022-09-14T17:16:14.000Z,59.25
2022-09-14T17:18:49.782Z,59.57
2022-09-14T17:21:24.149Z,59.67
2022-09-14T17:23:57.197Z,59.78
2022-09-14T17:26:30.738Z,59.88
2022-09-14T17:29:04.403Z,60.09
2022-09-14T17:31:39.644Z,60.22
2022-09-14T17:34:16.199Z,60.32
2022-09-14T17:36:50.467Z,60.39
2022-09-14T17:39:24.485Z,60.34
2022-09-14T17:41:57.589Z,60.35
2022-09-14T17:44:32.897Z,60.50
2022-09-14T17:47:07.798Z,60.50
2022-09-14T17:49:42.381Z,60.62
2022-09-14T17:52:18.274Z,60.54
2022-09-14T17:54:51.469Z,60.49
2022-09-14T17:57:24.132Z,60.61
2022-09-14T17:59:57.862Z,60.75
2022-09-14T18:02:34.268Z,60.80
2022-09-14T18:05:09.557Z,60.76
2022-09-14T18:07:42.837Z,60.90
2022-09-14T18:10:18.023Z,60.99
2022-09-14T18:12:53.289Z,61.04
2022-09-14T18:15:26.763Z,61.03
2022-09-14T18:18:00.080Z,61.13
2022-09-14T18:20:36.560Z,61.00
2022-09-14T18:23:10.127Z,61.10
2022-09-14T18:25:45.812Z,61.16
2022-09-14T18:28:18.498Z,61.21
2022-09-14T18:30:51.673Z,60.94
2022-09-14T18:33:26.232Z,60.30
2022-09-14T18:35:58.965Z,60.74
2022-09-14T18:38:33.509Z,61.07
2022-09-14T18:41:12.306Z,61.27
2022-09-14T18:43:48.265Z,61.10
2022-09-14T18:46:27.083Z,60.55
2022-09-14T18:49:03.775Z,60.45
2022-09-14T18:51:37.573Z,60.37
2022-09-14T18:54:12.543Z,60.33
2022-09-14T18:56:46.320Z,60.33
2022-09-14T18:59:20.185Z,60.43
2022-09-14T19:01:53.759Z,60.65
2022-09-14T19:04:27.060Z,61.21
2022-09-14T19:07:01.386Z,61.44
2022-09-14T19:09:36.173Z,60.79
2022-09-14T19:12:10.705Z,60.50
2022-09-14T19:14:46.516Z,60.46
2022-09-14T19:17:20.645Z,60.44
2022-09-14T19:19:54.050Z,60.46
2022-09-14T19:22:29.312Z,60.32
2022-09-14T19:25:02.289Z,60.35
2022-09-14T19:27:36.088Z,60.36
2022-09-14T19:30:13.062Z,60.36
2022-09-14T19:32:47.825Z,60.26
2022-09-14T19:35:20.812Z,60.35
2022-09-14T19:37:55.521Z,60.26
2022-09-14T19:40:28.835Z,60.48
2022-09-14T19:43:03.551Z,60.47
2022-09-14T19:45:39.002Z,60.59
2022-09-14T19:48:12.851Z,60.53
2022-09-14T19:50:46.260Z,60.39
2022-09-14T19:53:19.612Z,60.49
2022-09-14T19:55:54.124Z,60.88
2022-09-14T19:58:29.112Z,61.39
2022-09-14T20:01:03.238Z,61.67
2022-09-14T20:03:39.349Z,61.69
2022-09-14T20:06:19.357Z,61.04
2022-09-14T20:08:53.941Z,60.89
2022-09-14T20:11:27.491Z,60.87
2022-09-14T20:14:02.631Z,61.17
2022-09-14T20:16:42.087Z,62.08
2022-09-14T20:19:24.152Z,62.13
2022-09-14T20:21:57.699Z,62.27
2022-09-14T20:24:32.606Z,62.31
2022-09-14T20:27:05.081Z,61.42
2022-09-14T20:29:37.786Z,61.05
2022-09-14T20:32:12.299Z,61.22
2022-09-14T20:35:09.399Z,61.33
2022-09-14T20:37:48.488Z,61.34
2022-09-14T20:40:24.051Z,62.00
2022-09-14T20:43:28.665Z,62.10
2022-09-14T20:46:05.675Z,62.04
2022-09-14T20:49:06.802Z,61.97
2022-09-14T20:52:08.749Z,62.98
2022-09-14T20:58:10.621Z,63.26
2022-09-14T21:00:47.448Z,63.26
2022-09-14T21:03:23.167Z,63.32
2022-09-14T21:06:26.689Z,62.51
2022-09-14T21:09:34.754Z,62.22
2022-09-14T21:12:35.601Z,62.28
2022-09-14T21:15:15.290Z,62.23
2022-09-14T21:17:50.923Z,62.38
2022-09-14T21:20:30.675Z,62.25
2022-09-14T21:23:09.022Z,62.33
2022-09-14T21:25:46.082Z,62.35
2022-09-14T21:28:19.106Z,62.32
2022-09-14T21:30:51.956Z,62.28
2022-09-14T21:33:24.161Z,62.59
2022-09-14T21:35:56.654Z,62.45
2022-09-14T21:38:32.286Z,62.44
2022-09-14T21:41:08.719Z,62.71
2022-09-14T21:43:42.941Z,62.79
2022-09-14T21:46:15.285Z,62.97
2022-09-14T21:48:51.424Z,62.98
2022-09-14T21:51:26.617Z,63.07
2022-09-14T21:54:00.597Z,63.24
2022-09-14T21:56:35.118Z,63.12
2022-09-14T21:59:10.096Z,62.82
2022-09-14T22:01:44.252Z,63.30
2022-09-14T22:04:18.814Z,63.14
2022-09-14T22:06:53.862Z,63.04
2022-09-14T22:09:28.334Z,63.61
2022-09-14T22:12:03.333Z,63.56
2022-09-14T22:14:36.365Z,63.34
2022-09-14T22:17:09.693Z,63.49
2022-09-14T22:19:43.467Z,63.67
2022-09-14T22:22:16.005Z,63.75
2022-09-14T22:24:48.759Z,63.80
2022-09-14T22:27:21.366Z,63.46
2022-09-14T22:29:53.657Z,63.46
2022-09-14T22:32:31.575Z,63.94
2022-09-14T22:35:08.721Z,63.52
2022-09-14T22:37:40.563Z,63.65
2022-09-14T22:40:13.800Z,63.73
2022-09-14T22:42:48.556Z,63.00
2022-09-14T22:45:22.822Z,63.16
2022-09-14T22:47:58.290Z,63.52
2022-09-14T22:50:33.413Z,63.47
2022-09-14T22:53:05.198Z,63.14
2022-09-14T22:55:40.311Z,63.40
2022-09-14T22:58:14.192Z,63.32
2022-09-14T23:00:48.540Z,63.34
2022-09-14T23:03:23.221Z,63.57
2022-09-14T23:05:58.109Z,63.38
2022-09-14T23:08:37.047Z,63.55
2022-09-14T23:11:12.348Z,63.64
2022-09-14T23:13:45.035Z,64.42
2022-09-14T23:16:20.260Z,64.60
2022-09-14T23:19:00.867Z,64.62
2022-09-14T23:21:33.943Z,64.15
2022-09-14T23:24:08.770Z,63.67
2022-09-14T23:26:42.264Z,63.64
2022-09-14T23:29:18.098Z,64.00
2022-09-14T23:31:51.072Z,64.17
2022-09-14T23:34:26.751Z,64.22
2022-09-14T23:37:03.460Z,64.22
2022-09-14T23:39:35.795Z,63.67
2022-09-14T23:42:08.484Z,63.86
2022-09-14T23:44:41.885Z,63.57
2022-09-14T23:47:15.581Z,64.33
2022-09-14T23:49:48.069Z,64.40
2022-09-14T23:52:21.692Z,64.31
2022-09-14T23:54:56.791Z,64.29
2022-09-14T23:57:29.897Z,64.25
